Time;durP1;ratioP1;P1;durP2;ratioP2;P2;SDS_P1;SDS_P2;PMS_P1;PMS_P2;Temp;Humidity;BMP_temperature;BMP_pressure;BME280_temperature;BME280_humidity;BME280_pressure;Samples;Min_cycle;Max_cycle;Signal;HPM_P1;HPM_P2
2023/12/04 00:00:01;;;;;;;1.17;1.17;;;-0.10;99.90;;;;;;5018728;28;20052;-76
2023/12/04 00:02:33;;;;;;;0.80;0.80;;;-0.50;99.90;;;;;;5021275;28;20048;-77
2023/12/04 00:04:59;;;;;;;2.55;2.35;;;-0.50;99.90;;;;;;5013768;28;20045;-76
2023/12/04 00:07:25;;;;;;;0.90;0.90;;;-0.50;99.90;;;;;;5026162;28;21648;-78
2023/12/04 00:09:50;;;;;;;0.77;0.77;;;-0.50;99.90;;;;;;4991644;28;20048;-77
2023/12/04 00:12:16;;;;;;;0.75;0.75;;;-0.50;99.90;;;;;;5007931;28;20044;-77
2023/12/04 00:14:42;;;;;;;1.15;1.15;;;-0.50;99.90;;;;;;5010933;28;20486;-78
2023/12/04 00:17:07;;;;;;;0.80;0.80;;;-0.50;99.90;;;;;;5019964;28;20055;-77
2023/12/04 00:19:33;;;;;;;0.77;0.77;;;-0.30;99.90;;;;;;5015807;28;20045;-78
2023/12/04 00:22:02;;;;;;;1.05;1.05;;;-0.50;99.90;;;;;;5048158;28;20049;-76
2023/12/04 00:24:28;;;;;;;1.15;1.15;;;-0.50;99.90;;;;;;5017401;28;20048;-76
2023/12/04 00:26:53;;;;;;;1.38;1.27;;;-0.50;99.90;;;;;;5029476;28;20048;-76
2023/12/04 00:29:19;;;;;;;5.32;1.38;;;-0.50;99.90;;;;;;5029794;28;20064;-77
2023/12/04 00:31:46;;;;;;;1.30;1.20;;;-0.50;99.90;;;;;;5026493;28;20049;-77
2023/12/04 00:34:12;;;;;;;0.75;0.75;;;-0.50;99.90;;;;;;5000653;28;20045;-77
2023/12/04 00:36:38;;;;;;;0.70;0.70;;;0.40;99.90;;;;;;5022425;28;20561;-77
2023/12/04 00:39:03;;;;;;;0.60;0.60;;;-0.50;99.90;;;;;;5008248;28;20452;-78
2023/12/04 00:41:29;;;;;;;3.08;1.52;;;-0.50;99.90;;;;;;5016334;28;20514;-78
2023/12/04 00:43:55;;;;;;;0.75;0.75;;;-0.50;99.90;;;;;;5016615;28;20045;-77
2023/12/04 00:46:22;;;;;;;1.00;1.00;;;-0.50;99.90;;;;;;5028483;28;20637;-76
2023/12/04 00:48:48;;;;;;;1.80;1.70;;;-0.50;99.90;;;;;;5022932;28;20037;-77
2023/12/04 00:51:13;;;;;;;3.72;1.55;;;1.20;99.90;;;;;;5013095;28;20091;-77
2023/12/04 00:53:39;;;;;;;1.00;1.00;;;-0.50;99.90;;;;;;5030526;28;20494;-80
2023/12/04 00:56:06;;;;;;;1.70;1.60;;;-0.50;99.90;;;;;;5039608;28;20088;-77
2023/12/04 00:58:37;;;;;;;2.75;2.65;;;-0.50;99.90;;;;;;5019680;28;20114;-80
2023/12/04 01:01:03;;;;;;;0.70;0.70;;;-0.50;99.90;;;;;;5025775;28;20048;-80
2023/12/04 01:03:32;;;;;;;0.65;0.65;;;-0.50;99.90;;;;;;5026280;28;20437;-79
2023/12/04 01:05:59;;;;;;;0.70;0.70;;;-0.50;99.90;;;;;;5043235;28;20132;-78
2023/12/04 01:08:25;;;;;;;0.80;0.80;;;-0.50;99.90;;;;;;5024353;28;20107;-79
2023/12/04 01:10:50;;;;;;;0.70;0.70;;;-0.50;99.90;;;;;;5028611;28;20055;-80
2023/12/04 01:13:21;;;;;;;0.65;0.65;;;-0.50;99.90;;;;;;5031775;28;20052;-79
2023/12/04 01:15:48;;;;;;;0.90;0.90;;;-0.40;99.90;;;;;;5020687;28;20045;-79
2023/12/04 01:18:14;;;;;;;0.60;0.60;;;-0.50;99.90;;;;;;5024880;28;20103;-78
2023/12/04 01:20:40;;;;;;;0.75;0.75;;;-0.50;99.90;;;;;;5043171;28;20405;-78
2023/12/04 01:23:06;;;;;;;0.75;0.75;;;-0.50;99.90;;;;;;5044607;28;20481;-79
2023/12/04 01:25:32;;;;;;;0.80;0.80;;;-0.10;99.90;;;;;;5044012;28;20141;-80
2023/12/04 01:27:57;;;;;;;0.80;0.80;;;-0.50;99.90;;;;;;5025784;28;20049;-80
2023/12/04 01:30:26;;;;;;;0.60;0.60;;;-0.50;99.90;;;;;;5043053;28;20128;-79
2023/12/04 01:32:52;;;;;;;0.80;0.80;;;-0.50;99.90;;;;;;5045914;28;20131;-79
2023/12/04 01:35:19;;;;;;;0.70;0.70;;;-0.50;99.90;;;;;;5027104;28;20049;-80
2023/12/04 01:37:44;;;;;;;0.70;0.70;;;-0.50;99.90;;;;;;5040662;28;20097;-79
2023/12/04 01:40:10;;;;;;;0.70;0.70;;;-0.50;99.90;;;;;;5019521;28;20042;-79
2023/12/04 01:42:36;;;;;;;3.63;2.25;;;-0.50;99.90;;;;;;5039707;28;20049;-80
2023/12/04 01:45:02;;;;;;;2.13;2.03;;;0.20;99.90;;;;;;5014226;28;20087;-79
2023/12/04 01:47:28;;;;;;;0.60;0.60;;;-0.50;99.90;;;;;;5025443;28;20105;-80
2023/12/04 01:49:54;;;;;;;0.70;0.70;;;-0.30;99.90;;;;;;5021346;28;20037;-80
2023/12/04 01:52:19;;;;;;;0.98;0.98;;;-0.50;99.90;;;;;;5045058;28;20102;-79
2023/12/04 01:54:45;;;;;;;0.70;0.70;;;-0.50;99.90;;;;;;5044298;28;20053;-79
2023/12/04 01:57:11;;;;;;;0.70;0.70;;;-0.50;99.90;;;;;;5040161;28;20041;-80
2023/12/04 01:59:37;;;;;;;;;;;-0.50;99.90;;;;;;5005330;28;20029;-79
2023/12/04 02:02:03;;;;;;;1.42;1.33;;;-0.50;99.90;;;;;;5043911;28;19921;-80
2023/12/04 02:04:31;;;;;;;0.90;0.90;;;-0.50;99.90;;;;;;5046022;28;20052;-79
2023/12/04 02:06:57;;;;;;;0.70;0.70;;;-0.50;99.90;;;;;;5042686;28;20041;-77
2023/12/04 02:09:23;;;;;;;0.70;0.70;;;-0.30;99.90;;;;;;5046851;28;20043;-77
2023/12/04 02:11:48;;;;;;;1.65;1.55;;;-0.50;99.90;;;;;;5037345;28;20039;-77
2023/12/04 02:14:14;;;;;;;0.93;0.93;;;-0.50;99.90;;;;;;5047665;28;20127;-78
2023/12/04 02:16:41;;;;;;;0.90;0.90;;;-0.50;99.90;;;;;;5029938;28;20132;-78
2023/12/04 02:19:08;;;;;;;1.88;1.77;;;-0.50;99.90;;;;;;5044168;28;20394;-78
2023/12/04 02:21:34;;;;;;;0.60;0.60;;;-0.50;99.90;;;;;;5039718;28;20056;-78
2023/12/04 02:24:00;;;;;;;0.80;0.80;;;-0.50;99.90;;;;;;5041360;28;20094;-79
2023/12/04 02:26:28;;;;;;;;;;;-0.40;99.90;;;;;;5042289;28;20053;-78
2023/12/04 02:29:00;;;;;;;0.80;0.80;;;-0.50;99.90;;;;;;5043502;28;19928;-78
2023/12/04 02:31:29;;;;;;;1.13;1.13;;;-0.50;99.90;;;;;;5044907;28;20052;-77
2023/12/04 02:33:57;;;;;;;0.68;0.68;;;-0.30;99.90;;;;;;5043820;28;20037;-79
2023/12/04 02:36:25;;;;;;;7.05;3.72;;;-0.50;99.90;;;;;;5046929;28;20500;-78
2023/12/04 02:38:52;;;;;;;0.70;0.70;;;-0.40;99.90;;;;;;5044053;28;20045;-78
2023/12/04 02:41:18;;;;;;;2.00;1.85;;;-0.50;99.90;;;;;;5037463;28;20522;-78
2023/12/04 02:43:45;;;;;;;0.93;0.93;;;-0.50;99.90;;;;;;5044547;28;20120;-78
2023/12/04 02:46:10;;;;;;;0.70;0.70;;;-0.50;99.90;;;;;;5042774;28;20040;-78
2023/12/04 02:48:36;;;;;;;0.68;0.68;;;-0.40;99.90;;;;;;5042191;28;20037;-78
2023/12/04 02:51:03;;;;;;;1.00;1.00;;;-0.50;99.90;;;;;;5027954;28;20124;-78
2023/12/04 02:53:29;;;;;;;0.80;0.80;;;-0.50;99.90;;;;;;5043422;28;20119;-78
2023/12/04 02:55:54;;;;;;;0.63;0.63;;;-0.40;99.90;;;;;;5031757;28;20502;-78
2023/12/04 02:58:20;;;;;;;0.80;0.80;;;-0.40;99.90;;;;;;5033731;28;20041;-78
2023/12/04 03:00:46;;;;;;;0.70;0.70;;;-0.40;99.90;;;;;;5037786;28;20040;-78
2023/12/04 03:03:13;;;;;;;0.80;0.80;;;-0.40;99.90;;;;;;5021153;28;20140;-78
2023/12/04 03:05:38;;;;;;;0.70;0.70;;;-0.40;99.90;;;;;;5042108;28;20048;-78
2023/12/04 03:08:04;;;;;;;2.25;2.15;;;-0.40;99.90;;;;;;5027568;28;20040;-79
2023/12/04 03:10:30;;;;;;;0.50;0.50;;;0.00;99.90;;;;;;5040977;28;20417;-79
2023/12/04 03:12:55;;;;;;;0.70;0.70;;;-0.30;99.90;;;;;;5027064;28;20035;-79
2023/12/04 03:15:21;;;;;;;0.70;0.70;;;-0.30;99.90;;;;;;5030879;28;20099;-78
2023/12/04 03:17:47;;;;;;;1.05;1.05;;;0.30;99.90;;;;;;5044883;28;20056;-79
2023/12/04 03:20:12;;;;;;;0.60;0.60;;;-0.30;99.90;;;;;;5042252;28;20048;-77
2023/12/04 03:22:38;;;;;;;1.73;1.38;;;-0.30;99.90;;;;;;5023397;28;20045;-78
2023/12/04 03:25:04;;;;;;;0.60;0.60;;;-0.30;99.90;;;;;;5041771;28;20044;-78
2023/12/04 03:27:33;;;;;;;1.50;1.50;;;-0.30;99.90;;;;;;5042950;28;20123;-78
2023/12/04 03:29:59;;;;;;;0.77;0.77;;;-0.30;99.90;;;;;;5028168;28;20049;-78
2023/12/04 03:32:25;;;;;;;0.98;0.98;;;-0.30;99.90;;;;;;5045735;28;20040;-78
2023/12/04 03:34:51;;;;;;;4.68;1.88;;;-0.20;99.90;;;;;;5044556;28;20041;-78
2023/12/04 03:37:16;;;;;;;0.68;0.68;;;-0.30;99.90;;;;;;5021814;28;20045;-78
2023/12/04 03:39:42;;;;;;;0.60;0.60;;;-0.30;99.90;;;;;;5042357;28;20037;-78
2023/12/04 03:42:13;;;;;;;0.98;0.98;;;-0.30;99.90;;;;;;5010833;28;20126;-79
2023/12/04 03:44:39;;;;;;;4.43;4.22;;;-0.30;99.90;;;;;;5040342;28;20493;-79
2023/12/04 03:47:04;;;;;;;0.70;0.70;;;-0.30;99.90;;;;;;5025310;28;20128;-78
2023/12/04 03:49:30;;;;;;;;;;;-0.30;99.90;;;;;;5048149;28;20053;-79
2023/12/04 03:51:56;;;;;;;0.70;0.70;;;0.40;99.90;;;;;;5013541;28;20385;-79
2023/12/04 03:54:22;;;;;;;0.70;0.70;;;-0.30;99.90;;;;;;5027309;28;20032;-79
2023/12/04 03:56:47;;;;;;;0.70;0.70;;;-0.30;99.90;;;;;;5027196;28;20065;-77
2023/12/04 03:59:13;;;;;;;1.23;1.23;;;-0.30;99.90;;;;;;5022213;28;20036;-78
2023/12/04 04:01:39;;;;;;;0.70;0.70;;;-0.20;99.90;;;;;;5038910;28;20068;-79
2023/12/04 04:04:04;;;;;;;0.85;0.85;;;-0.20;99.90;;;;;;5042998;28;20147;-77
2023/12/04 04:06:30;;;;;;;0.70;0.70;;;-0.20;99.90;;;;;;5039138;28;20175;-79
2023/12/04 04:08:56;;;;;;;0.70;0.70;;;-0.10;99.90;;;;;;5040587;28;20048;-77
2023/12/04 04:11:23;;;;;;;0.70;0.70;;;-0.20;99.90;;;;;;5036972;28;20120;-79
2023/12/04 04:13:49;;;;;;;0.70;0.70;;;-0.20;99.90;;;;;;5040278;28;20044;-78
2023/12/04 04:16:16;;;;;;;1.35;1.25;;;-0.20;99.90;;;;;;5039547;28;20052;-78
2023/12/04 04:18:43;;;;;;;0.80;0.80;;;-0.20;99.90;;;;;;5021226;28;20128;-77
2023/12/04 04:21:09;;;;;;;1.02;1.02;;;-0.20;99.90;;;;;;5037771;28;20410;-77
2023/12/04 04:23:35;;;;;;;7.43;5.88;;;-0.20;99.90;;;;;;5040518;28;20490;-80
2023/12/04 04:26:02;;;;;;;0.70;0.70;;;-0.20;99.90;;;;;;5037575;28;20041;-78
2023/12/04 04:28:28;;;;;;;0.60;0.60;;;-0.20;99.90;;;;;;5040844;28;20063;-78
2023/12/04 04:30:53;;;;;;;0.70;0.70;;;-0.10;99.90;;;;;;5038079;28;20045;-78
2023/12/04 04:33:19;;;;;;;0.70;0.70;;;-0.10;99.90;;;;;;5040675;28;20482;-78
2023/12/04 04:35:45;;;;;;;0.82;0.82;;;-0.10;99.90;;;;;;5033503;28;20477;-80
2023/12/04 04:38:10;;;;;;;0.60;0.60;;;-0.10;99.90;;;;;;5024106;28;20060;-77
2023/12/04 04:40:36;;;;;;;0.68;0.68;;;-0.10;99.90;;;;;;5037373;28;20049;-78
2023/12/04 04:43:02;;;;;;;0.80;0.80;;;-0.10;99.90;;;;;;5021843;28;20103;-79
2023/12/04 04:45:27;;;;;;;0.75;0.75;;;-0.20;99.90;;;;;;5023187;28;20097;-77
2023/12/04 04:47:53;;;;;;;0.60;0.60;;;-0.10;99.90;;;;;;5038110;28;20056;-79
2023/12/04 04:50:19;;;;;;;0.70;0.70;;;-0.10;99.90;;;;;;5040550;28;20482;-79
2023/12/04 04:52:44;;;;;;;0.65;0.65;;;-0.10;99.90;;;;;;5041949;28;20049;-79
2023/12/04 04:55:10;;;;;;;0.55;0.55;;;-0.10;99.90;;;;;;5036731;28;20069;-77
2023/12/04 04:57:36;;;;;;;;;;;-0.10;99.90;;;;;;5042439;28;20397;-79
2023/12/04 05:00:03;;;;;;;0.60;0.60;;;-0.10;99.90;;;;;;5010998;28;19921;-78
2023/12/04 05:02:28;;;;;;;0.70;0.70;;;-0.10;99.90;;;;;;5040666;28;20398;-77
2023/12/04 05:04:54;;;;;;;0.98;0.98;;;-0.10;99.90;;;;;;5036226;28;20160;-77
2023/12/04 05:07:20;;;;;;;0.60;0.60;;;-0.10;99.90;;;;;;5035622;28;20041;-77
2023/12/04 05:09:45;;;;;;;1.17;1.17;;;-0.10;99.90;;;;;;5042661;28;20037;-79
2023/12/04 05:12:11;;;;;;;0.70;0.70;;;-0.20;99.90;;;;;;5022718;28;20064;-76
2023/12/04 05:14:37;;;;;;;0.47;0.47;;;-0.10;99.90;;;;;;5028001;28;20041;-77
2023/12/04 05:17:02;;;;;;;0.70;0.70;;;-0.10;99.90;;;;;;5035712;28;20502;-78
2023/12/04 05:19:28;;;;;;;0.65;0.65;;;-0.10;99.90;;;;;;5036385;28;20496;-77
2023/12/04 05:21:54;;;;;;;0.60;0.60;;;-0.10;99.90;;;;;;5011517;28;20037;-78
2023/12/04 05:24:19;;;;;;;3.83;2.05;;;-0.10;99.90;;;;;;5035416;28;20510;-78
2023/12/04 05:26:45;;;;;;;0.90;0.90;;;-0.10;99.90;;;;;;5037775;28;20049;-78
2023/12/04 05:29:11;;;;;;;0.80;0.80;;;-0.10;99.90;;;;;;5033988;28;20053;-77
2023/12/04 05:31:36;;;;;;;0.70;0.70;;;1.80;99.90;;;;;;5041705;28;20511;-78
2023/12/04 05:34:03;;;;;;;2.05;1.05;;;-0.20;99.90;;;;;;5039129;28;20041;-77
2023/12/04 05:36:29;;;;;;;0.70;0.70;;;-0.20;99.90;;;;;;5038697;28;20053;-77
2023/12/04 05:38:55;;;;;;;0.68;0.68;;;-0.20;99.90;;;;;;5037205;28;20049;-76
2023/12/04 05:41:20;;;;;;;0.70;0.70;;;0.00;99.90;;;;;;5031004;28;20618;-77
2023/12/04 05:43:46;;;;;;;6.82;5.25;;;-0.20;99.90;;;;;;5033963;28;20053;-79
2023/12/04 05:46:13;;;;;;;0.90;0.90;;;-0.20;99.90;;;;;;5034056;28;20045;-76
2023/12/04 05:48:38;;;;;;;1.75;0.95;;;-0.20;99.90;;;;;;5040848;28;20125;-75
2023/12/04 05:51:04;;;;;;;0.70;0.70;;;0.20;99.90;;;;;;5022958;28;20099;-78
2023/12/04 05:53:30;;;;;;;0.90;0.90;;;-0.20;99.90;;;;;;5027341;28;20355;-79
2023/12/04 05:55:55;;;;;;;0.70;0.70;;;-0.20;99.90;;;;;;5014833;28;20045;-78
2023/12/04 05:58:21;;;;;;;0.75;0.75;;;-0.10;99.90;;;;;;5041569;28;20352;-77
2023/12/04 06:00:47;;;;;;;1.92;1.83;;;-0.20;99.90;;;;;;5039745;28;20044;-77
2023/12/04 06:03:12;;;;;;;1.38;1.27;;;-0.20;99.90;;;;;;5044495;28;20511;-78
2023/12/04 06:05:38;;;;;;;0.60;0.60;;;-0.20;99.90;;;;;;5046670;28;20057;-77
2023/12/04 06:08:04;;;;;;;0.95;0.95;;;-0.20;99.90;;;;;;5026208;28;20091;-77
2023/12/04 06:10:30;;;;;;;;;;;-0.10;99.90;;;;;;5041942;28;20269;-78
2023/12/04 06:12:55;;;;;;;0.77;0.77;;;-0.20;99.90;;;;;;5041435;28;20062;-78
2023/12/04 06:15:21;;;;;;;1.02;1.02;;;-0.20;99.90;;;;;;5029000;28;20055;-77
2023/12/04 06:17:47;;;;;;;0.73;0.73;;;-0.20;99.90;;;;;;5023892;28;20044;-78
2023/12/04 06:20:12;;;;;;;0.73;0.73;;;-0.10;99.90;;;;;;5025141;28;20056;-76
2023/12/04 06:22:38;;;;;;;0.68;0.68;;;-0.10;99.90;;;;;;5026560;28;20056;-77
2023/12/04 06:25:05;;;;;;;0.70;0.70;;;-0.10;99.90;;;;;;5035104;28;20626;-76
2023/12/04 06:27:31;;;;;;;0.50;0.50;;;-0.10;99.90;;;;;;5045167;28;20558;-77
2023/12/04 06:29:58;;;;;;;;;;;-0.10;99.90;;;;;;5042772;28;20045;-77
2023/12/04 06:32:24;;;;;;;0.80;0.80;;;-0.10;99.90;;;;;;5024891;28;20259;-80
2023/12/04 06:34:50;;;;;;;0.75;0.75;;;-0.10;99.90;;;;;;5020729;28;20057;-78
2023/12/04 06:37:15;;;;;;;;;;;-0.10;99.90;;;;;;5039876;28;20041;-79
2023/12/04 06:39:41;;;;;;;2.03;1.88;;;-0.10;99.90;;;;;;5044806;28;19966;-77
2023/12/04 06:42:08;;;;;;;2.10;1.67;;;-0.10;99.90;;;;;;5021395;28;20394;-78
2023/12/04 06:44:35;;;;;;;0.63;0.63;;;-0.10;99.90;;;;;;5043177;28;20028;-77
2023/12/04 06:47:04;;;;;;;0.52;0.52;;;-0.20;99.90;;;;;;5034915;28;20510;-79
2023/12/04 06:49:33;;;;;;;0.65;0.65;;;-0.20;99.90;;;;;;5042228;28;20037;-78
2023/12/04 06:52:00;;;;;;;0.70;0.70;;;-0.20;99.90;;;;;;5041947;28;20041;-79
2023/12/04 06:54:26;;;;;;;0.70;0.70;;;-0.20;99.90;;;;;;5045521;28;20056;-79
2023/12/04 06:56:52;;;;;;;0.70;0.70;;;-0.20;99.90;;;;;;5040272;28;20164;-76
2023/12/04 06:59:18;;;;;;;0.70;0.70;;;-0.20;99.90;;;;;;5043370;28;20491;-78
2023/12/04 07:01:44;;;;;;;0.50;0.50;;;-0.20;99.90;;;;;;5038138;28;20491;-77
2023/12/04 07:04:10;;;;;;;0.75;0.75;;;-0.20;99.90;;;;;;5029056;28;20037;-78
2023/12/04 07:06:36;;;;;;;0.70;0.70;;;-0.20;99.90;;;;;;5038077;28;20037;-78
2023/12/04 07:09:02;;;;;;;0.70;0.70;;;-0.20;99.90;;;;;;5036072;28;20582;-76
2023/12/04 07:11:28;;;;;;;0.77;0.77;;;-0.40;99.90;;;;;;5020980;28;20034;-78
2023/12/04 07:13:54;;;;;;;0.88;0.88;;;-0.30;99.90;;;;;;5037517;28;20471;-77
2023/12/04 07:16:19;;;;;;;0.70;0.70;;;-0.30;99.90;;;;;;5039629;28;20546;-76
2023/12/04 07:18:45;;;;;;;0.80;0.80;;;-0.30;99.90;;;;;;5008789;28;20041;-77
2023/12/04 07:21:17;;;;;;;1.05;1.05;;;-0.30;99.90;;;;;;5025419;28;20047;-79
2023/12/04 07:23:42;;;;;;;0.65;0.65;;;-0.30;99.90;;;;;;5022274;28;20583;-77
2023/12/04 07:26:08;;;;;;;0.57;0.57;;;-0.40;99.90;;;;;;5012886;28;20037;-78
2023/12/04 07:28:34;;;;;;;0.60;0.60;;;-0.40;99.90;;;;;;5033905;28;20084;-78
2023/12/04 07:31:01;;;;;;;1.80;1.70;;;-0.40;99.90;;;;;;5029300;28;20525;-78
2023/12/04 07:33:27;;;;;;;0.70;0.70;;;-0.40;99.90;;;;;;5039719;28;20116;-77
2023/12/04 07:35:54;;;;;;;0.95;0.95;;;-0.40;99.90;;;;;;5009299;28;20132;-78
2023/12/04 07:38:20;;;;;;;2.13;2.03;;;-0.40;99.90;;;;;;5027602;28;20484;-77
2023/12/04 07:40:46;;;;;;;0.63;0.63;;;-0.40;99.90;;;;;;5040937;28;20132;-79
2023/12/04 07:43:11;;;;;;;0.80;0.80;;;-0.40;99.90;;;;;;5019131;28;20037;-77
2023/12/04 07:45:37;;;;;;;0.90;0.90;;;-0.50;99.90;;;;;;5036837;28;20042;-77
2023/12/04 07:48:07;;;;;;;0.60;0.60;;;-0.30;99.90;;;;;;5017948;28;20037;-76
2023/12/04 07:50:33;;;;;;;0.60;0.60;;;-0.40;99.90;;;;;;5019915;28;20084;-76
2023/12/04 07:52:59;;;;;;;0.70;0.70;;;-0.20;99.90;;;;;;5034307;28;20033;-78
2023/12/04 07:55:25;;;;;;;0.73;0.73;;;-0.40;99.90;;;;;;5041669;28;20079;-80
2023/12/04 07:57:50;;;;;;;0.70;0.70;;;-0.40;99.90;;;;;;5043701;28;20124;-78
2023/12/04 08:00:19;;;;;;;3.72;1.23;;;0.30;99.90;;;;;;5025394;28;20041;-79
2023/12/04 08:02:46;;;;;;;0.60;0.60;;;-0.30;99.90;;;;;;5022254;28;20041;-78
2023/12/04 08:05:12;;;;;;;0.70;0.70;;;-0.30;99.90;;;;;;5045777;28;20084;-78
2023/12/04 08:07:38;;;;;;;0.70;0.70;;;-0.30;99.90;;;;;;5040211;28;20431;-76
2023/12/04 08:10:04;;;;;;;0.80;0.80;;;-0.30;99.90;;;;;;5028515;28;20049;-78
2023/12/04 08:12:30;;;;;;;0.63;0.63;;;-0.30;99.90;;;;;;5027246;28;20478;-77
2023/12/04 08:14:56;;;;;;;0.70;0.70;;;-0.30;99.90;;;;;;5038434;28;20094;-79
2023/12/04 08:17:21;;;;;;;0.60;0.60;;;-0.20;99.90;;;;;;5039335;28;20045;-80
2023/12/04 08:19:47;;;;;;;0.70;0.70;;;-0.10;99.90;;;;;;5031063;28;20038;-81
2023/12/04 08:22:13;;;;;;;0.80;0.80;;;-0.10;99.90;;;;;;5045811;28;20372;-79
2023/12/04 08:24:38;;;;;;;1.13;1.13;;;-0.10;99.90;;;;;;5043387;28;20036;-78
2023/12/04 08:27:04;;;;;;;0.90;0.90;;;0.00;99.90;;;;;;5041090;28;20041;-78
2023/12/04 08:29:30;;;;;;;1.42;1.40;;;0.00;99.90;;;;;;5033585;28;20495;-76
2023/12/04 08:31:56;;;;;;;1.25;1.25;;;0.20;99.90;;;;;;5035741;28;20057;-76
2023/12/04 08:34:21;;;;;;;0.80;0.80;;;0.00;99.90;;;;;;5015625;28;20631;-78
2023/12/04 08:36:48;;;;;;;0.70;0.70;;;0.10;99.90;;;;;;5025069;28;20052;-77
2023/12/04 08:39:20;;;;;;;2.05;1.45;;;0.10;99.90;;;;;;5034681;28;20080;-79
2023/12/04 08:41:48;;;;;;;0.90;0.90;;;0.60;99.90;;;;;;5027171;28;20530;-77
2023/12/04 08:44:33;;;;;;;0.80;0.80;;;0.20;99.90;;;;;;5040039;28;20041;-76
2023/12/04 08:46:59;;;;;;;0.90;0.90;;;0.20;99.90;;;;;;5041425;28;20390;-77
2023/12/04 08:49:25;;;;;;;0.70;0.70;;;0.20;99.90;;;;;;5018311;28;20037;-77
2023/12/04 08:51:54;;;;;;;1.05;1.05;;;0.20;99.90;;;;;;5023857;28;20037;-77
2023/12/04 08:54:20;;;;;;;0.90;0.90;;;0.30;99.90;;;;;;5037197;28;20110;-76
2023/12/04 08:56:45;;;;;;;0.60;0.60;;;0.30;99.90;;;;;;5038563;28;20045;-77
2023/12/04 08:59:12;;;;;;;0.80;0.80;;;0.30;99.90;;;;;;5041530;28;20064;-78
2023/12/04 09:01:40;;;;;;;0.63;0.63;;;0.80;99.90;;;;;;5021006;28;20491;-78
2023/12/04 09:04:08;;;;;;;0.70;0.70;;;0.40;99.90;;;;;;5037058;28;20057;-79
2023/12/04 09:06:33;;;;;;;0.70;0.70;;;0.40;99.90;;;;;;5020049;28;20096;-78
2023/12/04 09:08:59;;;;;;;0.63;0.63;;;0.50;99.90;;;;;;5040253;28;20069;-78
2023/12/04 09:11:25;;;;;;;0.65;0.65;;;0.50;99.90;;;;;;5039260;28;20103;-77
2023/12/04 09:13:52;;;;;;;1.55;1.38;;;0.60;99.90;;;;;;5015603;28;20045;-78
2023/12/04 09:16:17;;;;;;;0.60;0.60;;;0.50;99.90;;;;;;5007357;28;20036;-78
2023/12/04 09:18:43;;;;;;;1.65;1.60;;;0.60;99.90;;;;;;5033440;28;20072;-79
2023/12/04 09:21:09;;;;;;;0.70;0.70;;;0.70;99.90;;;;;;5033085;28;20049;-77
2023/12/04 09:23:35;;;;;;;0.80;0.80;;;0.60;99.90;;;;;;5013648;28;20486;-77
2023/12/04 09:26:01;;;;;;;0.60;0.60;;;0.60;99.90;;;;;;5030606;28;20045;-78
2023/12/04 09:28:27;;;;;;;0.70;0.70;;;0.60;99.90;;;;;;5029940;28;20412;-77
2023/12/04 09:30:53;;;;;;;0.60;0.60;;;0.60;99.90;;;;;;5043400;28;20038;-77
2023/12/04 09:33:19;;;;;;;0.80;0.80;;;0.70;99.90;;;;;;5045313;28;20437;-77
2023/12/04 09:35:45;;;;;;;0.60;0.60;;;0.70;99.90;;;;;;5048864;28;20060;-75
2023/12/04 09:38:10;;;;;;;0.98;0.98;;;1.20;99.90;;;;;;5038864;28;20102;-77
2023/12/04 09:40:42;;;;;;;0.70;0.70;;;0.70;99.90;;;;;;5045697;28;20060;-76
2023/12/04 09:43:08;;;;;;;1.02;0.98;;;0.70;99.90;;;;;;5033141;28;20041;-77
2023/12/04 09:45:34;;;;;;;0.65;0.65;;;0.70;99.90;;;;;;5041175;28;20606;-79
2023/12/04 09:48:01;;;;;;;0.60;0.60;;;0.70;99.90;;;;;;5047248;28;20489;-76
2023/12/04 09:50:27;;;;;;;0.65;0.65;;;0.70;99.90;;;;;;5045360;28;20102;-80
2023/12/04 09:52:53;;;;;;;0.98;0.98;;;0.80;99.90;;;;;;5045909;28;20045;-75
2023/12/04 09:55:19;;;;;;;0.70;0.70;;;0.80;99.90;;;;;;5043013;28;20524;-77
2023/12/04 09:57:46;;;;;;;0.80;0.80;;;0.90;99.90;;;;;;5039251;28;20112;-77
2023/12/04 10:00:14;;;;;;;0.70;0.70;;;0.90;99.90;;;;;;5043777;28;20053;-76
2023/12/04 10:02:40;;;;;;;0.55;0.55;;;1.00;99.90;;;;;;5041257;28;20053;-77
2023/12/04 10:05:07;;;;;;;0.50;0.50;;;1.10;99.90;;;;;;5035913;28;20052;-76
2023/12/04 10:07:33;;;;;;;0.68;0.68;;;1.10;99.90;;;;;;5021848;28;20033;-79
2023/12/04 10:09:59;;;;;;;0.55;0.55;;;1.40;99.90;;;;;;5040663;28;20557;-77
2023/12/04 10:12:26;;;;;;;0.63;0.63;;;1.20;99.90;;;;;;5036250;28;20163;-76
2023/12/04 10:15:05;;;;;;;;;;;1.20;99.90;;;;;;5041787;28;20053;-75
2023/12/04 10:17:38;;;;;;;0.60;0.60;;;1.30;99.90;;;;;;5035152;28;19917;-78
2023/12/04 10:20:10;;;;;;;0.68;0.68;;;1.40;99.90;;;;;;5039965;28;20137;-75
2023/12/04 10:22:38;;;;;;;0.63;0.63;;;1.40;99.90;;;;;;5041337;28;20115;-78
2023/12/04 10:25:17;;;;;;;0.60;0.60;;;1.50;99.90;;;;;;5043450;28;20506;-77
2023/12/04 10:27:44;;;;;;;0.50;0.50;;;1.60;99.90;;;;;;5036621;28;20392;-78
2023/12/04 10:30:21;;;;;;;0.70;0.70;;;1.70;99.90;;;;;;5039989;28;20077;-76
2023/12/04 10:32:47;;;;;;;0.70;0.70;;;1.70;99.90;;;;;;5020387;28;20117;-77
2023/12/04 10:35:13;;;;;;;0.60;0.60;;;1.70;99.90;;;;;;5019127;28;20124;-76
2023/12/04 10:37:39;;;;;;;;;;;1.70;99.90;;;;;;5034882;28;20052;-79
2023/12/04 10:40:08;;;;;;;1.45;1.35;;;1.70;99.90;;;;;;5040066;28;19917;-79
2023/12/04 10:42:35;;;;;;;0.70;0.70;;;1.70;99.90;;;;;;5033888;28;20128;-78
2023/12/04 10:45:01;;;;;;;0.70;0.70;;;2.20;99.90;;;;;;5045190;28;20095;-78
2023/12/04 10:47:30;;;;;;;0.60;0.60;;;1.80;99.90;;;;;;5025809;28;20033;-79
2023/12/04 10:49:56;;;;;;;1.10;1.10;;;1.70;99.90;;;;;;5027099;28;20040;-79
2023/12/04 10:52:23;;;;;;;;;;;1.70;99.90;;;;;;5016862;28;20049;-78
2023/12/04 10:54:49;;;;;;;0.60;0.60;;;1.80;99.90;;;;;;5034048;28;19921;-77
2023/12/04 10:57:31;;;;;;;;;;;1.80;99.90;;;;;;5041398;28;20033;-77
2023/12/04 11:00:05;;;;;;;0.70;0.70;;;1.80;99.90;;;;;;5027577;28;20014;-78
2023/12/04 11:02:34;;;;;;;0.45;0.45;;;1.50;99.90;;;;;;5038825;28;20375;-77
2023/12/04 11:05:13;;;;;;;0.60;0.60;;;1.80;99.90;;;;;;5038060;28;20053;-77
2023/12/04 11:07:44;;;;;;;0.73;0.73;;;1.70;99.90;;;;;;5050199;28;20445;-76
2023/12/04 11:10:16;;;;;;;0.60;0.60;;;1.80;99.90;;;;;;5027539;28;20048;-78
2023/12/04 11:12:49;;;;;;;0.60;0.60;;;1.90;99.90;;;;;;5041247;28;20124;-78
2023/12/04 11:15:17;;;;;;;0.63;0.63;;;2.10;99.90;;;;;;5043771;28;20059;-77
2023/12/04 11:17:48;;;;;;;0.50;0.50;;;2.00;99.90;;;;;;5037657;28;20051;-78
2023/12/04 11:20:18;;;;;;;1.23;1.13;;;2.40;99.90;;;;;;5031265;28;20426;-76
2023/12/04 11:22:45;;;;;;;0.70;0.70;;;3.20;99.90;;;;;;5033325;28;20138;-78
2023/12/04 11:25:13;;;;;;;2.00;1.90;;;2.60;99.90;;;;;;5020552;28;20037;-75
2023/12/04 11:27:40;;;;;;;0.57;0.57;;;2.30;99.90;;;;;;5034999;28;20514;-77
2023/12/04 11:30:07;;;;;;;0.60;0.60;;;2.30;99.90;;;;;;5036098;28;20037;-77
2023/12/04 11:32:44;;;;;;;0.60;0.60;;;2.40;99.90;;;;;;5010769;28;20486;-78
2023/12/04 11:35:14;;;;;;;0.65;0.65;;;2.40;99.90;;;;;;5037776;28;20037;-78
2023/12/04 11:37:41;;;;;;;0.60;0.60;;;2.50;99.90;;;;;;5018908;28;20426;-78
2023/12/04 11:40:12;;;;;;;0.60;0.60;;;2.40;99.90;;;;;;5020832;28;20037;-79
2023/12/04 11:42:43;;;;;;;0.85;0.85;;;2.60;99.90;;;;;;5042318;28;20047;-77
2023/12/04 11:45:21;;;;;;;0.55;0.55;;;3.00;99.90;;;;;;5040872;28;20099;-78
2023/12/04 11:47:57;;;;;;;0.70;0.70;;;2.60;99.90;;;;;;5043295;28;20051;-78
2023/12/04 11:50:27;;;;;;;0.70;0.70;;;2.40;99.90;;;;;;5043638;28;20059;-79
2023/12/04 11:52:54;;;;;;;0.50;0.50;;;2.70;99.90;;;;;;5046268;28;20535;-78
2023/12/04 11:55:25;;;;;;;0.88;0.88;;;2.80;99.90;;;;;;5043980;28;20126;-77
2023/12/04 11:57:54;;;;;;;0.50;0.50;;;2.80;99.90;;;;;;5041439;28;20056;-79
2023/12/04 12:00:22;;;;;;;0.65;0.65;;;2.90;99.90;;;;;;5038712;28;20041;-77
2023/12/04 12:03:02;;;;;;;0.70;0.70;;;2.90;99.90;;;;;;5042827;28;20119;-78
2023/12/04 12:05:28;;;;;;;0.68;0.68;;;2.90;99.90;;;;;;5039211;28;20245;-79
2023/12/04 12:07:54;;;;;;;;;;;3.20;99.90;;;;;;5039487;28;20045;-78
2023/12/04 12:10:20;;;;;;;0.50;0.50;;;2.90;99.90;;;;;;5020838;28;19929;-77
2023/12/04 12:12:47;;;;;;;0.60;0.60;;;3.00;99.90;;;;;;5041503;28;20124;-80
2023/12/04 12:15:13;;;;;;;0.68;0.68;;;2.60;99.90;;;;;;5023915;28;20084;-80
2023/12/04 12:17:41;;;;;;;0.63;0.63;;;2.60;99.90;;;;;;5042912;28;20394;-78
2023/12/04 12:20:08;;;;;;;1.35;1.35;;;2.60;99.90;;;;;;5022155;28;20059;-79
2023/12/04 12:22:41;;;;;;;1.08;1.00;;;2.30;99.90;;;;;;5040844;28;20098;-77
2023/12/04 12:25:11;;;;;;;0.57;0.57;;;1.90;99.90;;;;;;5043036;28;20104;-80
2023/12/04 12:27:37;;;;;;;0.50;0.50;;;2.20;99.90;;;;;;5043144;28;20076;-78
2023/12/04 12:30:04;;;;;;;0.60;0.60;;;2.20;99.90;;;;;;5042803;28;20634;-77
2023/12/04 12:32:36;;;;;;;0.55;0.55;;;2.20;99.90;;;;;;5040522;28;20040;-80
2023/12/04 12:35:03;;;;;;;0.68;0.68;;;2.20;99.90;;;;;;5036792;28;20074;-78
2023/12/04 12:37:29;;;;;;;0.60;0.60;;;2.20;99.90;;;;;;5037615;28;21260;-78
2023/12/04 12:39:56;;;;;;;0.50;0.50;;;2.10;99.90;;;;;;5021511;28;20041;-78
2023/12/04 12:42:29;;;;;;;0.50;0.50;;;2.10;99.90;;;;;;5040386;28;20056;-78
2023/12/04 12:44:59;;;;;;;0.60;0.60;;;2.20;99.90;;;;;;5017019;28;20045;-79
2023/12/04 12:47:25;;;;;;;0.57;0.57;;;2.20;99.90;;;;;;5033035;28;20040;-77
2023/12/04 12:49:51;;;;;;;0.60;0.60;;;2.20;99.90;;;;;;5037436;28;20062;-80